Time;durP1;ratioP1;P1;durP2;ratioP2;P2;SDS_P1;SDS_P2;PMS_P1;PMS_P2;Temp;Humidity;BMP_temperature;BMP_pressure;BME280_temperature;BME280_humidity;BME280_pressure;Samples;Min_cycle;Max_cycle;Signal;HPM_P1;HPM_P2
2022/10/31 00:00:45;;;;;;;;;6.00;6.00;;;;;21.63;59.65;101186.45;106300;1282;18500;-81
2022/10/31 00:03:32;;;;;;;;;5.00;5.00;;;;;21.63;59.76;101185.97;106286;1294;22573;-81
2022/10/31 00:06:01;;;;;;;;;6.00;5.00;;;;;21.63;59.84;101190.84;106403;1294;18532;-81
2022/10/31 00:08:28;;;;;;;;;8.00;8.00;;;;;21.64;60.01;101190.98;106424;1286;18709;-81
2022/10/31 00:10:56;;;;;;;;;8.00;6.00;;;;;21.64;59.87;101188.16;106437;1294;20087;-81
2022/10/31 00:13:23;;;;;;;;;5.00;5.00;;;;;21.64;59.99;101192.23;106425;1278;20007;-81
2022/10/31 00:15:50;;;;;;;;;5.00;5.00;;;;;21.65;60.06;101193.38;106359;1294;18823;-80
2022/10/31 00:18:17;;;;;;;;;6.00;6.00;;;;;21.66;60.18;101189.83;106385;1294;19613;-81
2022/10/31 00:20:45;;;;;;;;;5.50;5.00;;;;;21.65;60.18;101185.70;106346;1294;19099;-81
2022/10/31 00:23:12;;;;;;;;;5.00;5.00;;;;;21.66;59.97;101191.44;106359;1293;18778;-81
2022/10/31 00:25:39;;;;;;;;;6.00;6.00;;;;;21.65;60.20;101192.60;106374;1293;19275;-80
2022/10/31 00:28:07;;;;;;;;;4.00;4.00;;;;;21.65;60.20;101196.23;106376;1286;21922;-81
2022/10/31 00:30:34;;;;;;;;;5.50;5.50;;;;;21.65;60.21;101193.52;106386;1294;18723;-80
2022/10/31 00:33:01;;;;;;;;;6.00;6.00;;;;;21.66;60.23;101192.38;106347;1279;22374;-81
2022/10/31 00:35:28;;;;;;;;;8.50;8.00;;;;;21.66;60.22;101194.88;106381;1293;21901;-81
2022/10/31 00:37:56;;;;;;;;;8.00;6.00;;;;;21.66;60.15;101194.70;106399;1294;18627;-81
2022/10/31 00:40:23;;;;;;;;;8.00;6.00;;;;;21.66;60.27;101195.59;106444;1294;19470;-81
2022/10/31 00:42:50;;;;;;;;;5.00;4.00;;;;;21.66;60.18;101192.02;106342;1294;18727;-81
2022/10/31 00:45:18;;;;;;;;;9.00;9.00;;;;;21.64;60.11;101187.84;106400;1285;19673;-81
2022/10/31 00:47:45;;;;;;;;;6.00;5.00;;;;;21.65;60.29;101186.32;106372;1282;22805;-81
2022/10/31 00:50:12;;;;;;;;;4.50;4.50;;;;;21.66;60.19;101186.73;106435;1294;18483;-81
2022/10/31 00:52:39;;;;;;;;;6.00;6.00;;;;;21.65;60.36;101184.61;106385;1285;20261;-81
2022/10/31 00:55:07;;;;;;;;;5.00;5.00;;;;;21.65;60.19;101182.98;106324;1286;21354;-81
2022/10/31 00:57:34;;;;;;;;;7.33;7.33;;;;;21.65;60.25;101182.09;106389;1294;19580;-81
2022/10/31 01:00:01;;;;;;;;;7.00;7.00;;;;;21.65;60.37;101183.35;106376;1294;18574;-81
2022/10/31 01:02:29;;;;;;;;;9.00;8.50;;;;;21.65;60.22;101180.31;106395;1292;19520;-81
2022/10/31 01:04:56;;;;;;;;;8.00;8.00;;;;;21.64;60.21;101178.19;106366;1286;18440;-80
2022/10/31 01:07:23;;;;;;;;;8.00;6.00;;;;;21.64;60.11;101179.49;106358;1280;20349;-81
2022/10/31 01:09:50;;;;;;;;;6.00;6.00;;;;;21.64;60.06;101179.48;106408;1293;19270;-80
2022/10/31 01:12:18;;;;;;;;;8.00;8.00;;;;;21.65;60.08;101174.52;106393;1294;18415;-80
2022/10/31 01:14:45;;;;;;;;;9.00;8.50;;;;;21.62;59.87;101174.00;106340;1293;18704;-81
2022/10/31 01:17:12;;;;;;;;;8.00;6.00;;;;;21.63;59.78;101173.41;106353;1293;19379;-81
2022/10/31 01:19:40;;;;;;;;;10.00;10.00;;;;;21.63;59.76;101178.13;106341;1278;19573;-81
2022/10/31 01:22:07;;;;;;;;;9.50;9.50;;;;;21.62;59.81;101177.27;106350;1294;18553;-81
2022/10/31 01:24:34;;;;;;;;;8.50;7.00;;;;;21.64;59.54;101179.15;106490;1280;21607;-81
2022/10/31 01:27:01;;;;;;;;;8.00;8.00;;;;;21.64;59.58;101177.68;106392;1278;20034;-81
2022/10/31 01:29:29;;;;;;;;;12.00;12.00;;;;;21.63;59.68;101180.14;106432;1294;18769;-81
2022/10/31 01:31:56;;;;;;;;;12.50;11.00;;;;;21.63;59.53;101178.84;106375;1285;19475;-81
2022/10/31 01:34:23;;;;;;;;;8.33;8.33;;;;;21.63;59.46;101175.60;106398;1287;18555;-81
2022/10/31 01:36:51;;;;;;;;;7.00;7.00;;;;;21.63;59.54;101172.66;106427;1279;18502;-81
2022/10/31 01:39:18;;;;;;;;;10.00;10.00;;;;;21.63;59.28;101172.36;106410;1278;19867;-81
2022/10/31 01:41:45;;;;;;;;;8.50;8.00;;;;;21.63;59.38;101173.09;106358;1285;18350;-81
2022/10/31 01:44:12;;;;;;;;;8.00;8.00;;;;;21.62;59.31;101175.27;106304;1279;22094;-81
2022/10/31 01:46:40;;;;;;;;;10.00;9.00;;;;;21.63;59.20;101177.92;106422;1285;19789;-81
2022/10/31 01:49:07;;;;;;;;;11.00;11.00;;;;;21.61;59.10;101173.73;106347;1294;18709;-80
2022/10/31 01:51:34;;;;;;;;;;;;;;;21.61;59.17;101177.77;106339;1286;19131;-81
2022/10/31 01:54:02;;;;;;;;;10.00;9.00;;;;;21.60;59.10;101178.20;106378;1278;21042;-81
2022/10/31 01:56:29;;;;;;;;;8.00;8.00;;;;;21.62;59.04;101180.63;106416;1293;18372;-81
2022/10/31 01:58:56;;;;;;;;;10.00;9.00;;;;;21.61;59.10;101181.91;106368;1294;18668;-81
2022/10/31 02:01:23;;;;;;;;;8.00;8.00;;;;;21.61;58.93;101179.56;106342;1291;19232;-81
2022/10/31 02:03:51;;;;;;;;;9.00;8.00;;;;;21.62;59.00;101182.84;106380;1278;21975;-81
2022/10/31 02:06:18;;;;;;;;;12.00;10.00;;;;;21.60;59.09;101180.80;106411;1294;18875;-81
2022/10/31 02:08:45;;;;;;;;;8.00;8.00;;;;;21.60;59.02;101181.65;106343;1294;19579;-81
2022/10/31 02:11:13;;;;;;;;;8.00;8.00;;;;;21.60;58.99;101180.94;106357;1294;20610;-80
2022/10/31 02:13:40;;;;;;;;;8.00;6.00;;;;;21.60;58.88;101183.56;106415;1275;18484;-81
2022/10/31 02:16:07;;;;;;;;;8.00;8.00;;;;;21.60;58.87;101181.76;106369;1280;21703;-81
2022/10/31 02:18:34;;;;;;;;;12.00;11.00;;;;;21.59;59.04;101183.98;106389;1278;22891;-81
2022/10/31 02:21:02;;;;;;;;;9.00;9.00;;;;;21.60;58.65;101189.70;106293;1278;22781;-81
2022/10/31 02:23:29;;;;;;;;;9.00;8.00;;;;;21.60;58.91;101187.02;106359;1285;19711;-81
2022/10/31 02:25:56;;;;;;;;;9.00;9.00;;;;;21.58;58.87;101187.38;106386;1286;28204;-80
2022/10/31 02:28:23;;;;;;;;;10.00;9.00;;;;;21.58;58.70;101193.70;106335;1294;18847;-81
2022/10/31 02:30:51;;;;;;;;;8.00;8.00;;;;;21.59;58.71;101190.02;106486;1294;19356;-81
2022/10/31 02:33:18;;;;;;;;;13.00;9.00;;;;;21.58;58.57;101190.79;106377;1294;18602;-81
2022/10/31 02:35:45;;;;;;;;;10.00;10.00;;;;;21.59;58.43;101192.50;106361;1279;18745;-81
2022/10/31 02:38:13;;;;;;;;;10.00;10.00;;;;;21.59;58.70;101190.69;106314;1272;19457;-81
2022/10/31 02:40:40;;;;;;;;;8.00;8.00;;;;;21.59;58.51;101195.94;106397;1289;18475;-81
2022/10/31 02:43:07;;;;;;;;;;;;;;;21.59;58.40;101195.63;106460;1294;18835;-81
2022/10/31 02:45:34;;;;;;;;;12.00;12.00;;;;;21.59;58.50;101200.92;106375;1294;19266;-81
2022/10/31 02:48:02;;;;;;;;;8.00;14.00;;;;;21.58;58.35;101202.66;106515;1286;23962;-80
2022/10/31 02:50:29;;;;;;;;;8.00;6.00;;;;;21.59;58.33;101206.03;106850;1292;20043;-82
2022/10/31 02:52:56;;;;;;;;;12.00;12.00;;;;;21.59;58.27;101208.42;106771;1286;19720;-81
2022/10/31 02:55:23;;;;;;;;;9.00;9.00;;;;;21.59;58.42;101207.98;106347;1287;18500;-80
2022/10/31 02:57:51;;;;;;;;;9.00;9.00;;;;;21.59;58.34;101210.54;106327;1294;18752;-81
2022/10/31 03:00:18;;;;;;;;;10.00;10.00;;;;;21.59;58.40;101215.04;106514;1294;19515;-80
2022/10/31 03:02:45;;;;;;;;;8.50;8.00;;;;;21.58;58.20;101218.27;106486;1294;19528;-81
2022/10/31 03:05:13;;;;;;;;;9.00;9.00;;;;;21.58;58.34;101218.48;106432;1287;18950;-81
2022/10/31 03:07:40;;;;;;;;;9.50;8.50;;;;;21.58;58.32;101221.92;106369;1279;19284;-81
2022/10/31 03:10:07;;;;;;;;;9.00;9.00;;;;;21.57;58.40;101222.15;106529;1277;18491;-81
2022/10/31 03:12:34;;;;;;;;;;;;;;;21.57;58.24;101221.11;106367;1293;21993;-80
2022/10/31 03:15:02;;;;;;;;;9.00;9.00;;;;;21.57;58.10;101222.89;106386;1279;20749;-80
2022/10/31 03:17:29;;;;;;;;;10.00;10.00;;;;;21.57;58.14;101222.98;106436;1288;18764;-81
2022/10/31 03:19:57;;;;;;;;;11.00;10.00;;;;;21.58;58.26;101219.93;106412;1294;18925;-81
2022/10/31 03:22:24;;;;;;;;;9.00;9.00;;;;;21.57;58.11;101225.45;106329;1286;21999;-81
2022/10/31 03:24:51;;;;;;;;;9.00;9.00;;;;;21.57;57.94;101227.31;106352;1285;23866;-81
2022/10/31 03:27:18;;;;;;;;;12.00;12.00;;;;;21.55;58.08;101227.34;106355;1285;23192;-80
2022/10/31 03:29:46;;;;;;;;;9.00;8.00;;;;;21.56;57.99;101229.20;106334;1294;21953;-81
2022/10/31 03:32:13;;;;;;;;;10.00;8.00;;;;;21.55;58.19;101230.61;106369;1285;18808;-81
2022/10/31 03:34:40;;;;;;;;;8.00;8.00;;;;;21.57;58.06;101229.34;106378;1294;18570;-81
2022/10/31 03:37:07;;;;;;;;;7.00;7.00;;;;;21.56;58.09;101231.19;106434;1271;22796;-81
2022/10/31 03:39:35;;;;;;;;;12.00;10.00;;;;;21.57;58.04;101234.05;106393;1278;18626;-81
2022/10/31 03:42:02;;;;;;;;;10.00;10.00;;;;;21.56;58.17;101233.73;106395;1272;20595;-81
2022/10/31 03:44:29;;;;;;;;;12.00;10.00;;;;;21.56;58.04;101240.33;106365;1279;19489;-80
2022/10/31 03:46:57;;;;;;;;;6.00;6.00;;;;;21.56;58.13;101235.92;106348;1294;22084;-80
2022/10/31 03:49:24;;;;;;;;;8.00;8.00;;;;;21.56;58.03;101237.26;106377;1286;18832;-81
2022/10/31 03:51:51;;;;;;;;;9.00;8.00;;;;;21.56;58.07;101234.73;106439;1285;19428;-80
2022/10/31 03:54:18;;;;;;;;;9.00;9.00;;;;;21.56;57.96;101238.18;106532;1294;18249;-80
2022/10/31 03:56:46;;;;;;;;;12.00;12.00;;;;;21.56;58.14;101238.48;106399;1293;18495;-80
2022/10/31 03:59:13;;;;;;;;;10.00;10.00;;;;;21.56;58.07;101237.43;106376;1288;21805;-80
2022/10/31 04:01:40;;;;;;;;;9.50;9.00;;;;;21.56;57.92;101242.50;106362;1294;18487;-80
2022/10/31 04:04:07;;;;;;;;;13.00;12.00;;;;;21.56;57.83;101240.88;106329;1285;18536;-80
2022/10/31 04:06:35;;;;;;;;;11.00;10.50;;;;;21.56;57.85;101250.39;106360;1294;19582;-80
2022/10/31 04:09:02;;;;;;;;;13.00;12.00;;;;;21.56;58.01;101250.83;106381;1294;18798;-80
2022/10/31 04:11:30;;;;;;;;;9.00;8.50;;;;;21.56;57.87;101246.73;106359;1280;18462;-80
2022/10/31 04:13:57;;;;;;;;;12.00;10.00;;;;;21.55;57.81;101246.10;106318;1294;21390;-80
2022/10/31 04:16:25;;;;;;;;;12.50;10.00;;;;;21.55;58.10;101248.48;106290;1294;23661;-80
2022/10/31 04:18:52;;;;;;;;;12.00;10.00;;;;;21.56;57.80;101246.95;106550;1286;19112;-80
2022/10/31 04:21:19;;;;;;;;;9.00;9.00;;;;;21.54;58.04;101240.70;106556;1294;21184;-80
2022/10/31 04:23:46;;;;;;;;;8.00;8.00;;;;;21.54;58.00;101241.08;106464;1294;18868;-80
2022/10/31 04:26:14;;;;;;;;;13.00;12.00;;;;;21.55;58.04;101240.56;106417;1294;18516;-80
2022/10/31 04:28:41;;;;;;;;;12.00;10.00;;;;;21.55;57.95;101241.69;106390;1294;22619;-80
2022/10/31 04:31:08;;;;;;;;;12.00;10.00;;;;;21.55;57.93;101238.08;106395;1294;21715;-79
2022/10/31 04:33:36;;;;;;;;;12.00;12.00;;;;;21.55;57.99;101242.98;106409;1278;18558;-80
2022/10/31 04:36:03;;;;;;;;;10.00;10.00;;;;;21.55;58.01;101245.59;106322;1294;19322;-80
2022/10/31 04:38:30;;;;;;;;;11.00;11.00;;;;;21.55;57.93;101236.67;106457;1285;22045;-80
2022/10/31 04:40:58;;;;;;;;;6.00;6.00;;;;;21.55;57.86;101236.85;106390;1293;18608;-80
2022/10/31 04:43:25;;;;;;;;;8.00;8.00;;;;;21.54;58.03;101235.67;106418;1294;19389;-80
2022/10/31 04:45:52;;;;;;;;;8.00;8.00;;;;;21.54;58.01;101234.91;106469;1300;18414;-80
2022/10/31 04:48:19;;;;;;;;;8.00;8.00;;;;;21.55;58.14;101236.14;106431;1294;22084;-80
2022/10/31 04:50:47;;;;;;;;;;;;;;;21.55;57.98;101232.60;106355;1286;19619;-83
2022/10/31 04:53:14;;;;;;;;;8.50;8.50;;;;;21.55;58.13;101233.00;106371;1294;18440;-80
2022/10/31 04:55:41;;;;;;;;;4.50;4.50;;;;;21.54;58.23;101228.91;106374;1286;18501;-81
2022/10/31 04:58:09;;;;;;;;;;;;;;;21.55;58.21;101225.33;106315;1294;19502;-80
2022/10/31 05:00:36;;;;;;;;;6.00;6.00;;;;;21.55;58.14;101222.64;106461;1294;18297;-80
2022/10/31 05:03:03;;;;;;;;;9.00;9.00;;;;;21.55;58.11;101214.86;106448;1286;20263;-80
2022/10/31 05:05:30;;;;;;;;;8.00;8.00;;;;;21.55;58.19;101217.00;106445;1285;21247;-80
2022/10/31 05:08:05;;;;;;;;;10.00;9.00;;;;;21.55;58.22;101222.67;106370;1285;21350;-80
2022/10/31 05:10:32;;;;;;;;;8.00;8.00;;;;;21.54;58.21;101218.55;106326;1271;23070;-80
2022/10/31 05:12:59;;;;;;;;;5.00;5.00;;;;;21.55;58.15;101222.43;106301;1275;19591;-81
2022/10/31 05:15:27;;;;;;;;;6.00;6.00;;;;;21.56;58.08;101223.23;106384;1294;18441;-81
2022/10/31 05:17:54;;;;;;;;;6.00;6.00;;;;;21.55;58.14;101229.36;106377;1281;19925;-81
2022/10/31 05:20:21;;;;;;;;;6.00;6.00;;;;;21.55;58.24;101228.46;106404;1293;19233;-81
2022/10/31 05:22:48;;;;;;;;;10.00;8.00;;;;;21.55;58.07;101230.41;106361;1293;19798;-81
2022/10/31 05:25:16;;;;;;;;;9.00;9.00;;;;;21.55;58.11;101233.72;106455;1277;18456;-81
2022/10/31 05:27:43;;;;;;;;;10.00;8.00;;;;;21.54;58.10;101235.45;106396;1293;21085;-81
2022/10/31 05:30:10;;;;;;;;;8.00;8.00;;;;;21.53;58.09;101233.17;106436;1286;18578;-82
2022/10/31 05:32:37;;;;;;;;;9.00;9.00;;;;;21.53;58.14;101228.09;106385;1288;18970;-80
2022/10/31 05:35:05;;;;;;;;;8.00;6.00;;;;;21.55;58.09;101230.48;106504;1278;20908;-81
2022/10/31 05:37:32;;;;;;;;;9.00;9.00;;;;;21.53;58.12;101235.19;106394;1269;19517;-82
2022/10/31 05:39:59;;;;;;;;;;;;;;;21.53;58.22;101235.09;106478;1278;18801;-81
2022/10/31 05:42:27;;;;;;;;;9.50;8.00;;;;;21.53;58.14;101239.59;106493;1294;19290;-82
2022/10/31 05:44:54;;;;;;;;;6.00;6.00;;;;;21.52;58.29;101240.23;106446;1294;18379;-82
2022/10/31 05:47:21;;;;;;;;;;;;;;;21.52;58.39;101242.27;106381;1293;18531;-81
2022/10/31 05:49:48;;;;;;;;;;;;;;;21.55;58.12;101244.04;106400;1279;20976;-82
2022/10/31 05:52:16;;;;;;;;;9.00;8.50;;;;;21.57;58.22;101248.74;106539;1288;18162;-80
2022/10/31 05:54:43;;;;;;;;;14.00;13.00;;;;;21.55;58.31;101248.20;106442;1294;18691;-79
2022/10/31 05:57:10;;;;;;;;;14.00;13.00;;;;;21.53;58.44;101251.92;106380;1293;22216;-79
2022/10/31 05:59:38;;;;;;;;;13.00;13.00;;;;;21.49;58.29;101254.23;106391;1269;18495;-79
2022/10/31 06:02:05;;;;;;;;;23.00;21.00;;;;;21.44;58.22;101254.95;106458;1278;18787;-78
2022/10/31 06:04:32;;;;;;;;;24.00;22.00;;;;;21.42;57.99;101257.03;106550;1268;20992;-79
2022/10/31 06:06:59;;;;;;;;;28.00;27.00;;;;;21.39;57.84;101263.28;106543;1285;20130;-79
2022/10/31 06:09:27;;;;;;;;;20.00;20.00;;;;;21.38;57.57;101263.29;106492;1282;21268;-78
2022/10/31 06:11:54;;;;;;;;;22.00;20.00;;;;;21.37;57.52;101266.30;106499;1285;19157;-78
2022/10/31 06:14:21;;;;;;;;;24.00;22.00;;;;;21.34;57.54;101266.21;106516;1285;21703;-79
2022/10/31 06:16:48;;;;;;;;;24.00;22.00;;;;;21.33;57.10;101266.69;106512;1277;18614;-81
2022/10/31 06:19:16;;;;;;;;;20.00;17.50;;;;;21.33;56.97;101267.27;106483;1271;19427;-80
2022/10/31 06:21:43;;;;;;;;;16.00;13.00;;;;;21.32;56.95;101268.50;106380;1293;22205;-81
2022/10/31 06:24:10;;;;;;;;;21.00;21.00;;;;;21.33;56.94;101271.73;106419;1293;18814;-83
2022/10/31 06:26:37;;;;;;;;;20.00;17.00;;;;;21.39;56.83;101280.27;106461;1286;19250;-82
2022/10/31 06:29:05;;;;;;;;;20.00;18.00;;;;;21.43;56.99;101279.76;106435;1288;18827;-82
2022/10/31 06:31:32;;;;;;;;;15.50;15.50;;;;;21.46;57.22;101279.08;106400;1278;18815;-81
2022/10/31 06:33:59;;;;;;;;;35.00;32.00;;;;;21.49;57.41;101283.34;106535;1278;19417;-81
2022/10/31 06:36:27;;;;;;;;;39.00;33.00;;;;;21.53;57.77;101284.89;106351;1287;25372;-81
2022/10/31 06:39:00;;;;;;;;;40.50;33.50;;;;;21.54;58.02;101280.73;106335;1288;19158;-83
2022/10/31 06:41:27;;;;;;;;;33.00;28.00;;;;;21.54;58.15;101282.79;106348;1288;19328;-82
2022/10/31 06:43:55;;;;;;;;;;;;;;;21.54;58.17;101281.11;106429;1294;21296;-81
2022/10/31 06:46:22;;;;;;;;;29.00;25.00;;;;;21.54;58.35;101288.34;106530;1271;22037;-82
2022/10/31 06:48:49;;;;;;;;;;;;;;;21.56;58.50;101288.20;106652;1286;23127;-81
2022/10/31 06:51:17;;;;;;;;;24.00;21.00;;;;;21.56;58.69;101291.95;106479;1279;20902;-82
2022/10/31 06:53:44;;;;;;;;;18.00;17.00;;;;;21.56;58.54;101292.33;106517;1278;18807;-81
2022/10/31 06:56:11;;;;;;;;;12.50;12.50;;;;;21.57;58.62;101290.01;106793;1293;19317;-82
2022/10/31 06:58:38;;;;;;;;;13.00;13.00;;;;;21.59;58.97;101293.25;106724;1285;18683;-82
2022/10/31 07:01:06;;;;;;;;;16.50;13.00;;;;;21.62;59.02;101295.20;106561;1285;22783;-83
2022/10/31 07:03:33;;;;;;;;;16.00;14.00;;;;;21.63;59.14;101295.42;106559;1281;21087;-81
2022/10/31 07:06:00;;;;;;;;;13.00;12.00;;;;;21.63;58.97;101296.93;106403;1294;18488;-81
2022/10/31 07:08:27;;;;;;;;;13.00;12.50;;;;;21.63;59.05;101296.90;106450;1278;20070;-81
2022/10/31 07:10:55;;;;;;;;;13.00;13.00;;;;;21.63;59.20;101296.48;106474;1278;20630;-82
2022/10/31 07:13:25;;;;;;;;;13.50;12.00;;;;;21.65;59.14;101303.73;106491;1280;20151;-81
2022/10/31 07:15:52;;;;;;;;;12.50;11.00;;;;;21.63;59.33;101303.83;106577;1294;18923;-80
2022/10/31 07:18:19;;;;;;;;;9.33;9.33;;;;;21.62;59.43;101304.09;106453;1276;22183;-80
2022/10/31 07:20:47;;;;;;;;;13.00;12.00;;;;;21.68;59.45;101307.04;106462;1286;18608;-80
2022/10/31 07:23:14;;;;;;;;;12.00;12.00;;;;;21.69;59.58;101307.46;106395;1285;18560;-81
2022/10/31 07:25:41;;;;;;;;;12.50;10.00;;;;;21.69;59.59;101306.52;106304;1285;23081;-81
2022/10/31 07:28:09;;;;;;;;;12.00;10.00;;;;;21.70;59.75;101306.12;106353;1293;18627;-81
2022/10/31 07:30:36;;;;;;;;;13.00;12.00;;;;;21.69;59.82;101313.07;106516;1285;20116;-82
2022/10/31 07:33:03;;;;;;;;;8.00;8.00;;;;;21.69;59.78;101307.45;106425;1278;20970;-82
2022/10/31 07:35:31;;;;;;;;;12.00;10.00;;;;;21.71;59.88;101313.66;106381;1294;18461;-81
2022/10/31 07:37:58;;;;;;;;;9.00;9.00;;;;;21.71;60.10;101321.64;106501;1286;20594;-81
2022/10/31 07:40:25;;;;;;;;;9.00;9.00;;;;;21.71;59.94;101322.97;106574;1294;19494;-81
2022/10/31 07:42:52;;;;;;;;;11.00;10.00;;;;;21.72;60.03;101326.08;106418;1294;18746;-84
2022/10/31 07:45:20;;;;;;;;;10.00;9.00;;;;;21.71;60.06;101330.92;106476;1276;21590;-83
2022/10/31 07:47:47;;;;;;;;;10.00;9.00;;;;;21.69;60.42;101328.61;106517;1294;19357;-84
2022/10/31 07:50:14;;;;;;;;;10.00;10.00;;;;;21.69;60.45;101329.54;106510;1276;18772;-84
2022/10/31 07:52:42;;;;;;;;;9.00;9.00;;;;;21.69;60.73;101327.90;106490;1285;18477;-84
2022/10/31 07:55:09;;;;;;;;;8.00;6.00;;;;;21.71;61.16;101330.23;106474;1285;19484;-83
2022/10/31 07:57:37;;;;;;;;;8.50;8.50;;;;;21.73;61.20;101329.62;106510;1286;18685;-82
2022/10/31 08:00:04;;;;;;;;;9.00;9.00;;;;;21.74;61.25;101330.77;106370;1285;172045;-83
2022/10/31 08:02:32;;;;;;;;;25.00;21.00;;;;;21.72;60.86;101336.84;106494;1278;19446;-81
2022/10/31 08:05:01;;;;;;;;;24.00;18.00;;;;;21.56;60.45;101341.77;106489;1278;18387;-83
2022/10/31 08:07:29;;;;;;;;;18.00;18.00;;;;;21.45;59.87;101343.75;106424;1285;22276;-82
2022/10/31 08:09:56;;;;;;;;;18.00;16.00;;;;;21.45;59.49;101348.36;106413;1278;20718;-82
2022/10/31 08:12:23;;;;;;;;;18.00;17.00;;;;;21.46;59.45;101343.58;106463;1285;18672;-82
2022/10/31 08:14:50;;;;;;;;;16.00;16.00;;;;;21.49;59.39;101344.41;106413;1293;18572;-82
2022/10/31 08:17:18;;;;;;;;;16.00;14.00;;;;;21.49;59.14;101342.92;106469;1285;19262;-82
2022/10/31 08:19:45;;;;;;;;;18.33;16.33;;;;;21.50;59.19;101344.04;106981;1276;19225;-83
2022/10/31 08:22:12;;;;;;;;;18.00;18.00;;;;;21.53;58.86;101349.64;106790;1279;20057;-82
2022/10/31 08:24:39;;;;;;;;;17.00;14.00;;;;;21.53;58.93;101351.04;106469;1279;21969;-83
2022/10/31 08:27:07;;;;;;;;;16.00;14.00;;;;;21.53;58.99;101350.13;106363;1278;22958;-83
2022/10/31 08:29:34;;;;;;;;;14.00;13.00;;;;;21.54;59.14;101351.63;106421;1272;20144;-82
2022/10/31 08:32:01;;;;;;;;;12.50;12.00;;;;;21.54;58.97;101348.77;106444;1278;20780;-84
2022/10/31 08:34:29;;;;;;;;;14.00;13.00;;;;;21.56;59.13;101349.41;106434;1289;18889;-83
2022/10/31 08:36:56;;;;;;;;;16.00;13.00;;;;;21.60;59.29;101356.27;106460;1294;18607;-82
2022/10/31 08:39:23;;;;;;;;;12.00;12.00;;;;;21.60;59.28;101362.11;106438;1287;19262;-82
2022/10/31 08:41:51;;;;;;;;;12.50;12.50;;;;;21.58;59.41;101364.11;106375;1284;19250;-82
2022/10/31 08:44:18;;;;;;;;;13.00;12.50;;;;;21.58;59.32;101365.06;106406;1287;21365;-82
2022/10/31 08:46:45;;;;;;;;;13.00;13.00;;;;;21.56;59.34;101368.33;106491;1294;19462;-81
2022/10/31 08:49:13;;;;;;;;;13.00;13.00;;;;;21.56;59.26;101370.91;106357;1296;18481;-82
2022/10/31 08:51:40;;;;;;;;;12.50;11.00;;;;;21.57;59.26;101371.13;106486;1294;21958;-82
2022/10/31 08:54:07;;;;;;;;;;;;;;;21.56;59.26;101370.51;106355;1278;21926;-82
2022/10/31 08:56:34;;;;;;;;;14.00;12.00;;;;;21.55;59.15;101372.41;106369;1286;18830;-81
2022/10/31 08:59:02;;;;;;;;;12.50;11.00;;;;;21.56;59.28;101371.12;106442;1294;19472;-82
2022/10/31 09:01:29;;;;;;;;;12.00;10.00;;;;;21.54;59.34;101369.83;106245;1298;23913;-82
2022/10/31 09:03:56;;;;;;;;;12.00;10.00;;;;;21.54;59.29;101376.92;106329;1278;18491;-82
2022/10/31 09:06:24;;;;;;;;;12.00;12.00;;;;;21.55;59.21;101374.30;106408;1285;21779;-81
2022/10/31 09:08:51;;;;;;;;;14.00;9.50;;;;;21.55;59.03;101372.63;106365;1294;29459;-82
2022/10/31 09:11:18;;;;;;;;;14.00;13.00;;;;;21.55;59.34;101375.60;106450;1278;19993;-81
2022/10/31 09:13:45;;;;;;;;;13.00;12.00;;;;;21.54;59.09;101370.20;106326;1285;20172;-81
2022/10/31 09:16:13;;;;;;;;;16.00;13.00;;;;;21.56;59.04;101366.38;106331;1294;19887;-82
2022/10/31 09:18:40;;;;;;;;;9.50;9.50;;;;;21.55;59.04;101366.05;106413;1286;18539;-81
2022/10/31 09:21:07;;;;;;;;;16.00;14.00;;;;;21.55;58.96;101368.13;106373;1286;19036;-82
2022/10/31 09:23:34;;;;;;;;;13.50;13.50;;;;;21.55;59.06;101367.20;106365;1294;19258;-82
2022/10/31 09:26:02;;;;;;;;;11.00;9.00;;;;;21.55;58.93;101365.23;106395;1286;23369;-82
2022/10/31 09:28:29;;;;;;;;;14.00;12.00;;;;;21.54;58.94;101358.16;106385;1272;18534;-81
2022/10/31 09:30:56;;;;;;;;;13.00;12.00;;;;;21.55;59.04;101360.83;106375;1293;19609;-82
2022/10/31 09:33:23;;;;;;;;;10.00;10.00;;;;;21.55;58.96;101365.42;106376;1294;18462;-81
2022/10/31 09:35:51;;;;;;;;;12.00;10.00;;;;;21.56;59.04;101364.88;106364;1288;20187;-82
2022/10/31 09:38:18;;;;;;;;;11.00;10.00;;;;;21.55;58.97;101366.45;106357;1278;22083;-83
2022/10/31 09:40:46;;;;;;;;;9.50;9.50;;;;;21.55;59.01;101365.98;106380;1288;18518;-83
2022/10/31 09:43:13;;;;;;;;;13.00;12.00;;;;;21.55;58.95;101369.17;106359;1285;18764;-82
2022/10/31 09:45:40;;;;;;;;;12.00;9.50;;;;;21.54;58.86;101370.45;106483;1294;21869;-82
2022/10/31 09:48:08;;;;;;;;;10.00;10.00;;;;;21.55;58.85;101368.88;106392;1286;18661;-82
2022/10/31 09:50:35;;;;;;;;;9.00;9.00;;;;;21.58;58.84;101372.50;106381;1286;22727;-81
2022/10/31 09:53:02;;;;;;;;;11.00;10.00;;;;;21.59;59.22;101379.12;106400;1288;20932;-83
2022/10/31 09:55:30;;;;;;;;;9.00;8.00;;;;;21.61;59.32;101375.88;106454;1292;19481;-86
2022/10/31 09:57:57;;;;;;;;;12.50;12.50;;;;;21.69;59.31;101380.45;106384;1293;18527;-85
2022/10/31 10:00:24;;;;;;;;;16.50;16.00;;;;;21.77;59.14;101380.75;106375;1272;23110;-83
2022/10/31 10:02:51;;;;;;;;;16.50;13.50;;;;;21.76;59.09;101381.09;106369;1294;18701;-85
2022/10/31 10:05:19;;;;;;;;;24.00;20.00;;;;;21.66;59.46;101383.91;106397;1288;20223;-83
2022/10/31 10:07:46;;;;;;;;;25.00;20.50;;;;;21.55;59.30;101388.25;106376;1286;21053;-82
2022/10/31 10:10:13;;;;;;;;;25.00;22.00;;;;;21.45;59.20;101382.23;106479;1285;22109;-83
2022/10/31 10:12:40;;;;;;;;;30.50;26.00;;;;;21.42;59.33;101385.38;106478;1294;18620;-84
2022/10/31 10:15:08;;;;;;;;;31.00;29.00;;;;;21.38;59.12;101386.34;106407;1286;20901;-82
2022/10/31 10:17:35;;;;;;;;;28.67;25.67;;;;;21.29;58.96;101386.37;106412;1294;18745;-85
2022/10/31 10:20:02;;;;;;;;;31.50;27.50;;;;;21.22;59.07;101391.16;106400;1278;26277;-83
2022/10/31 10:22:31;;;;;;;;;28.50;25.00;;;;;21.26;59.10;101384.71;106549;1285;19384;-82
2022/10/31 10:24:58;;;;;;;;;;;;;;;21.30;59.15;101384.70;106532;1268;22868;-82
2022/10/31 10:27:25;;;;;;;;;35.00;31.00;;;;;21.28;59.75;101380.50;106530;1272;22278;-83
2022/10/31 10:29:53;;;;;;;;;31.50;26.00;;;;;21.27;60.16;101380.21;106467;1276;23440;-83
2022/10/31 10:32:20;;;;;;;;;;;;;;;21.28;60.05;101377.01;106490;1279;20094;-83
2022/10/31 10:34:47;;;;;;;;;25.00;24.00;;;;;21.27;59.92;101372.20;106382;1276;21533;-82
2022/10/31 10:37:15;;;;;;;;;33.00;28.00;;;;;21.28;60.12;101372.85;106408;1294;19278;-81
2022/10/31 10:39:42;;;;;;;;;33.00;29.00;;;;;21.31;60.14;101374.84;106474;1279;20625;-85
2022/10/31 10:47:51;;;;;;;;;21.00;19.00;;;;;21.28;59.57;101373.34;105956;1284;18827;-81
2022/10/31 10:50:19;;;;;;;;;30.00;26.00;;;;;21.31;59.71;101372.00;105971;1292;18896;-80
2022/10/31 10:52:46;;;;;;;;;;;;;;;21.40;59.65;101372.70;105936;1289;19477;-83
2022/10/31 10:55:14;;;;;;;;;24.00;23.00;;;;;21.48;59.68;101374.85;106019;1289;20446;-82
2022/10/31 10:57:41;;;;;;;;;15.50;15.00;;;;;21.55;59.68;101375.18;106504;1291;20314;-82
2022/10/31 11:00:08;;;;;;;;;16.50;16.50;;;;;21.62;60.06;101377.17;106389;1282;19612;-82
2022/10/31 11:02:36;;;;;;;;;21.00;18.00;;;;;21.62;60.43;101375.35;106410;1297;19572;-85
2022/10/31 11:05:03;;;;;;;;;19.00;16.50;;;;;21.66;60.62;101376.93;106038;1289;18751;-81
2022/10/31 11:07:30;;;;;;;;;14.00;13.00;;;;;21.70;61.12;101376.82;105981;1289;19438;-82
2022/10/31 11:09:57;;;;;;;;;13.00;13.00;;;;;21.73;61.09;101369.63;106017;1300;19582;-83
2022/10/31 11:12:25;;;;;;;;;13.00;12.00;;;;;21.77;61.67;101371.95;106017;1289;20314;-81
2022/10/31 11:14:52;;;;;;;;;14.00;12.00;;;;;21.78;61.52;101369.44;106003;1297;19484;-82
2022/10/31 11:17:19;;;;;;;;;11.00;11.00;;;;;21.83;61.57;101365.74;106002;1289;18515;-83